createdAt,value
2023-03-07T00:00:00.000Z,60.92
2023-03-07T00:15:00.000Z,61.51
2023-03-07T00:30:00.000Z,61.71
2023-03-07T00:45:00.000Z,62.37
2023-03-07T01:00:00.000Z,64.29
2023-03-07T01:15:00.000Z,64.99
2023-03-07T01:30:00.000Z,65.75
2023-03-07T01:45:00.000Z,66.97
2023-03-07T02:00:00.000Z,69.09
2023-03-07T02:15:00.000Z,69.68
2023-03-07T02:30:00.000Z,69.42
2023-03-07T02:45:00.000Z,68.91
2023-03-07T03:00:00.000Z,68.46
2023-03-07T03:15:00.000Z,67.65
2023-03-07T03:30:00.000Z,67.86
2023-03-07T03:45:00.000Z,68.59
2023-03-07T04:00:00.000Z,68.35
2023-03-07T04:15:00.000Z,68.68
2023-03-07T04:30:00.000Z,68.99
2023-03-07T04:45:00.000Z,68.99
2023-03-07T05:00:00.000Z,68.85
2023-03-07T05:15:00.000Z,69.06
2023-03-07T05:30:00.000Z,69.24
2023-03-07T05:45:00.000Z,69.29
2023-03-07T06:00:00.000Z,69.32
2023-03-07T06:15:00.000Z,69.18
2023-03-07T06:30:00.000Z,67.22
2023-03-07T06:45:00.000Z,64.9
2023-03-07T07:00:00.000Z,64.01
2023-03-07T07:15:00.000Z,62.58
2023-03-07T07:30:00.000Z,58.4
2023-03-07T07:45:00.000Z,54.82
2023-03-07T08:00:00.000Z,55.34
2023-03-07T08:15:00.000Z,57.11
2023-03-07T08:30:00.000Z,55.89
2023-03-07T08:45:00.000Z,54.88
2023-03-07T09:00:00.000Z,52.57
2023-03-07T09:15:00.000Z,44.59
2023-03-07T09:30:00.000Z,38.7
2023-03-07T09:45:00.000Z,36.36
2023-03-07T10:00:00.000Z,37.73
2023-03-07T10:15:00.000Z,39.11
2023-03-07T10:30:00.000Z,40.13
2023-03-07T10:45:00.000Z,39.29
2023-03-07T11:00:00.000Z,38.84
2023-03-07T11:15:00.000Z,38.9
2023-03-07T11:30:00.000Z,39.15
2023-03-07T11:45:00.000Z,38.77
2023-03-07T12:00:00.000Z,37.97
2023-03-07T12:15:00.000Z,37.86
2023-03-07T12:30:00.000Z,37.74
2023-03-07T12:45:00.000Z,39.82
2023-03-07T13:00:00.000Z,40.86
2023-03-07T13:15:00.000Z,40.13
2023-03-07T13:30:00.000Z,40.47
2023-03-07T13:45:00.000Z,40.94
2023-03-07T14:00:00.000Z,41.66
2023-03-07T14:15:00.000Z,42.04
2023-03-07T14:30:00.000Z,42.79
2023-03-07T14:45:00.000Z,43.03
2023-03-07T15:00:00.000Z,43.21
2023-03-07T15:15:00.000Z,43.83
2023-03-07T15:30:00.000Z,44.35
2023-03-07T15:45:00.000Z,44.72
2023-03-07T16:00:00.000Z,45.58
2023-03-07T16:15:00.000Z,46.52
2023-03-07T16:30:00.000Z,47.96
2023-03-07T16:45:00.000Z,49.66
2023-03-07T17:00:00.000Z,51.47
2023-03-07T17:15:00.000Z,52.16
2023-03-07T17:30:00.000Z,52.46
2023-03-07T17:45:00.000Z,51.94
2023-03-07T18:00:00.000Z,51.75
2023-03-07T18:15:00.000Z,52.48
2023-03-07T18:30:00.000Z,52.68
2023-03-07T18:45:00.000Z,53.06
2023-03-07T19:00:00.000Z,54.84
2023-03-07T19:15:00.000Z,56.6
2023-03-07T19:30:00.000Z,57.79
2023-03-07T19:45:00.000Z,58.07
2023-03-07T20:00:00.000Z,58.17
2023-03-07T20:15:00.000Z,58.48
2023-03-07T20:30:00.000Z,59.95
2023-03-07T20:45:00.000Z,62.17
2023-03-07T21:00:00.000Z,61.95
2023-03-07T21:15:00.000Z,61.67
2023-03-07T21:30:00.000Z,61.41
2023-03-07T21:45:00.000Z,59.45
2023-03-07T22:00:00.000Z,57.61
2023-03-07T22:15:00.000Z,58.13
2023-03-07T22:30:00.000Z,59.16
2023-03-07T22:45:00.000Z,58.98
2023-03-07T23:00:00.000Z,58.88
2023-03-07T23:15:00.000Z,62.6
2023-03-07T23:30:00.000Z,67.5
2023-03-07T23:45:00.000Z,69.34
